Time;durP1;ratioP1;P1;durP2;ratioP2;P2;SDS_P1;SDS_P2;PMS_P1;PMS_P2;Temp;Humidity;BMP_temperature;BMP_pressure;BME280_temperature;BME280_humidity;BME280_pressure;Samples;Min_cycle;Max_cycle;Signal;HPM_P1;HPM_P2
2022/12/04 00:01:15;;;;;;;64.63;31.58;;;2.60;99.90;;;;;;5012412;28;20375;-84
2022/12/04 00:03:41;;;;;;;67.55;32.45;;;2.60;99.90;;;;;;5012381;28;20391;-84
2022/12/04 00:06:16;;;;;;;71.55;33.63;;;2.60;99.90;;;;;;5012355;28;20036;-85
2022/12/04 00:08:43;;;;;;;73.97;33.58;;;2.60;99.90;;;;;;5012581;28;20493;-84
2022/12/04 00:11:11;;;;;;;67.68;32.28;;;2.60;99.90;;;;;;5012435;28;20014;-84
2022/12/04 00:13:38;;;;;;;74.40;32.88;;;2.60;99.90;;;;;;5015972;28;20036;-84
2022/12/04 00:16:08;;;;;;;70.97;34.00;;;2.60;99.90;;;;;;5016407;28;20464;-84
2022/12/04 00:18:34;;;;;;;71.53;31.58;;;2.70;99.90;;;;;;5016283;28;20475;-84
2022/12/04 00:21:04;;;;;;;71.15;31.23;;;2.70;99.90;;;;;;5016471;28;20014;-84
2022/12/04 00:23:30;;;;;;;70.53;32.38;;;2.60;99.90;;;;;;5016298;28;20037;-84
2022/12/04 00:26:04;;;;;;;71.45;32.17;;;2.70;99.90;;;;;;5016164;28;20030;-84
2022/12/04 00:28:29;;;;;;;69.60;33.05;;;2.70;99.90;;;;;;5016193;28;20065;-84
2022/12/04 00:30:55;;;;;;;72.30;33.67;;;2.70;99.90;;;;;;5017313;28;20022;-84
2022/12/04 00:33:59;;;;;;;78.82;33.95;;;2.70;99.90;;;;;;5016105;28;20117;-84
2022/12/04 00:36:27;;;;;;;64.70;31.42;;;2.70;99.90;;;;;;5015977;28;20382;-84
2022/12/04 00:38:53;;;;;;;70.32;32.30;;;2.70;99.90;;;;;;5015419;28;20022;-84
2022/12/04 00:41:24;;;;;;;70.00;31.40;;;2.70;99.90;;;;;;5017384;28;20034;-84
2022/12/04 00:43:50;;;;;;;67.32;31.35;;;2.70;99.90;;;;;;5016244;28;20497;-86
2022/12/04 00:46:16;;;;;;;72.30;33.28;;;2.70;99.90;;;;;;5015338;28;20116;-84
2022/12/04 00:48:42;;;;;;;72.22;33.72;;;2.70;99.90;;;;;;5015512;28;20360;-85
2022/12/04 00:51:14;;;;;;;66.53;31.92;;;2.70;99.90;;;;;;5015525;28;20034;-84
2022/12/04 00:53:40;;;;;;;74.68;33.17;;;2.70;99.90;;;;;;5016757;28;20120;-84
2022/12/04 00:56:09;;;;;;;71.18;32.78;;;2.70;99.90;;;;;;5015394;28;20517;-84
2022/12/04 00:58:34;;;;;;;77.80;33.80;;;2.70;99.90;;;;;;5015556;28;20026;-84
2022/12/04 01:01:15;;;;;;;71.40;34.78;;;2.70;99.90;;;;;;4999120;28;20025;-83
2022/12/04 01:03:42;;;;;;;73.00;33.05;;;2.70;99.90;;;;;;5015511;28;20480;-84
2022/12/04 01:06:17;;;;;;;66.85;32.13;;;2.70;99.90;;;;;;5016512;28;20026;-84
2022/12/04 01:08:43;;;;;;;71.47;33.22;;;2.70;99.90;;;;;;5017205;28;20359;-83
2022/12/04 01:11:09;;;;;;;71.00;33.10;;;2.70;99.90;;;;;;4998911;28;20026;-83
2022/12/04 01:13:34;;;;;;;70.60;33.55;;;2.70;99.90;;;;;;5015155;28;20069;-84
2022/12/04 01:16:07;;;;;;;71.53;33.15;;;2.70;99.90;;;;;;5016270;28;20033;-84
2022/12/04 01:18:32;;;;;;;76.70;32.38;;;2.70;99.90;;;;;;5015044;28;20426;-84
2022/12/04 01:20:58;;;;;;;72.80;33.00;;;2.70;99.90;;;;;;5015715;28;20040;-84
2022/12/04 01:23:43;;;;;;;70.75;33.90;;;2.70;99.90;;;;;;4998178;28;20045;-84
2022/12/04 01:26:09;;;;;;;68.75;32.50;;;2.70;99.90;;;;;;5014977;28;20040;-84
2022/12/04 01:28:35;;;;;;;72.43;36.00;;;2.70;99.90;;;;;;5015026;28;20018;-84
2022/12/04 01:31:04;;;;;;;65.95;32.70;;;2.70;99.90;;;;;;5015028;28;20044;-84
2022/12/04 01:33:31;;;;;;;75.07;34.85;;;2.70;99.90;;;;;;5016005;28;20018;-83
2022/12/04 01:35:58;;;;;;;72.07;32.60;;;2.70;99.90;;;;;;5016309;28;20474;-83
2022/12/04 01:38:24;;;;;;;68.38;32.67;;;2.70;99.90;;;;;;5014760;28;20018;-83
2022/12/04 01:40:50;;;;;;;65.97;32.47;;;2.70;99.90;;;;;;5015977;28;20026;-83
2022/12/04 01:46:39;;;;;;;67.10;31.58;;;2.70;99.90;;;;;;5016060;28;20068;-84
2022/12/04 01:49:09;;;;;;;69.93;32.88;;;2.70;99.90;;;;;;5014640;28;20026;-84
2022/12/04 01:51:41;;;;;;;75.03;32.78;;;2.70;99.90;;;;;;5014473;28;20467;-84
2022/12/04 01:54:13;;;;;;;68.32;32.38;;;2.70;99.90;;;;;;5015669;28;20041;-84
2022/12/04 01:56:52;;;;;;;69.75;33.55;;;2.70;99.90;;;;;;5014568;28;20097;-84
2022/12/04 01:59:22;;;;;;;71.43;32.88;;;2.70;99.90;;;;;;5014701;28;20463;-84
2022/12/04 02:02:07;;;;;;;69.82;31.80;;;2.70;99.90;;;;;;5014473;28;20550;-84
2022/12/04 02:04:33;;;;;;;73.82;33.38;;;2.70;99.90;;;;;;5015693;28;20029;-84
2022/12/04 02:06:59;;;;;;;75.68;33.97;;;2.70;99.90;;;;;;4998016;28;20026;-84
2022/12/04 02:13:12;;;;;;;69.53;31.98;;;2.70;99.90;;;;;;5015756;28;20033;-84
2022/12/04 02:15:45;;;;;;;68.03;32.38;;;2.70;99.90;;;;;;5015313;28;20029;-85
2022/12/04 02:18:39;;;;;;;71.00;34.13;;;2.70;99.90;;;;;;5014119;28;20029;-84
2022/12/04 02:21:35;;;;;;;70.53;33.63;;;2.70;99.90;;;;;;5014112;28;20021;-84
2022/12/04 02:24:36;;;;;;;67.78;33.17;;;2.70;99.90;;;;;;5008752;28;20061;-85
2022/12/04 02:27:10;;;;;;;69.03;32.63;;;2.70;99.90;;;;;;5012988;28;20426;-84
2022/12/04 02:30:11;;;;;;;74.28;33.45;;;2.70;99.90;;;;;;5013899;28;20025;-85
2022/12/04 02:32:40;;;;;;;;;;;2.70;99.90;;;;;;5014329;28;20125;-85
2022/12/04 02:35:14;;;;;;;68.10;31.33;;;2.70;99.90;;;;;;5013006;28;19906;-84
2022/12/04 02:37:53;;;;;;;71.60;34.33;;;2.70;99.90;;;;;;5015139;28;20085;-84
2022/12/04 02:40:51;;;;;;;66.82;31.55;;;2.70;99.90;;;;;;5013988;28;20025;-83
2022/12/04 02:43:43;;;;;;;72.97;33.65;;;2.70;99.90;;;;;;5013777;28;20025;-84
2022/12/04 02:46:33;;;;;;;71.70;33.28;;;2.70;99.90;;;;;;5013507;28;20037;-84
2022/12/04 02:49:02;;;;;;;66.90;32.78;;;2.70;99.90;;;;;;5013235;28;20034;-84
2022/12/04 02:51:32;;;;;;;79.38;35.03;;;2.70;99.90;;;;;;5013436;28;20030;-83
2022/12/04 02:54:09;;;;;;;73.72;33.25;;;2.60;99.90;;;;;;5012922;28;20532;-83
2022/12/04 02:56:41;;;;;;;71.80;33.25;;;2.70;99.90;;;;;;5013587;28;20029;-83
2022/12/04 02:59:13;;;;;;;73.20;33.22;;;2.70;99.90;;;;;;5013308;28;20022;-83
2022/12/04 03:01:42;;;;;;;68.10;32.00;;;2.70;99.90;;;;;;5013319;28;20113;-83
2022/12/04 03:04:18;;;;;;;69.32;33.15;;;2.70;99.90;;;;;;5013175;28;20024;-83
2022/12/04 03:06:49;;;;;;;75.20;34.45;;;2.70;99.90;;;;;;5013180;28;20459;-84
2022/12/04 03:09:29;;;;;;;69.10;32.35;;;2.70;99.90;;;;;;5013257;28;20018;-84
2022/12/04 03:12:08;;;;;;;80.10;34.38;;;2.70;99.90;;;;;;5015102;28;20451;-84
2022/12/04 03:14:41;;;;;;;73.82;33.55;;;2.70;99.90;;;;;;5013126;28;20045;-84
2022/12/04 03:17:30;;;;;;;68.68;32.33;;;2.70;99.90;;;;;;5014363;28;20029;-83
2022/12/04 03:20:02;;;;;;;69.40;34.08;;;2.70;99.90;;;;;;5012952;28;20109;-83
2022/12/04 03:22:30;;;;;;;70.13;32.30;;;2.70;99.90;;;;;;5012885;28;20030;-83
2022/12/04 03:24:56;;;;;;;71.53;32.75;;;2.70;99.90;;;;;;5014252;28;20056;-83
2022/12/04 03:27:43;;;;;;;68.38;31.98;;;2.70;99.90;;;;;;5014326;28;20025;-84
2022/12/04 03:30:12;;;;;;;74.15;32.95;;;2.70;99.90;;;;;;5012861;28;20033;-84
2022/12/04 03:32:38;;;;;;;64.25;32.35;;;2.80;99.90;;;;;;5014136;28;20409;-84
2022/12/04 03:35:09;;;;;;;71.43;32.45;;;2.80;99.90;;;;;;5012721;28;20427;-83
2022/12/04 03:37:45;;;;;;;69.60;33.28;;;2.80;99.90;;;;;;5013049;28;20030;-83
2022/12/04 03:40:26;;;;;;;69.45;33.22;;;2.80;99.90;;;;;;5012627;28;20458;-83
2022/12/04 03:43:00;;;;;;;70.22;33.25;;;2.80;99.90;;;;;;5014108;28;20088;-83
2022/12/04 03:45:41;;;;;;;68.13;31.95;;;2.70;99.90;;;;;;5012757;28;20029;-84
2022/12/04 03:48:19;;;;;;;62.47;31.50;;;2.80;99.90;;;;;;5013811;28;20049;-83
2022/12/04 03:51:16;;;;;;;70.50;32.38;;;2.80;99.90;;;;;;5012946;28;20018;-85
2022/12/04 03:53:48;;;;;;;66.72;31.10;;;2.80;99.90;;;;;;4987271;28;20044;-85
2022/12/04 03:56:26;;;;;;;68.60;31.60;;;2.80;99.90;;;;;;5013796;28;20052;-84
2022/12/04 03:59:03;;;;;;;67.85;32.15;;;2.80;99.90;;;;;;5012668;28;20121;-84
2022/12/04 04:01:37;;;;;;;65.15;32.25;;;2.70;99.90;;;;;;5012600;28;20105;-84
2022/12/04 04:04:06;;;;;;;66.57;31.88;;;2.80;99.90;;;;;;5013694;28;20033;-85
2022/12/04 04:06:42;;;;;;;65.03;31.38;;;2.80;99.90;;;;;;5013539;28;20101;-84
2022/12/04 04:09:13;;;;;;;66.05;32.17;;;2.70;99.90;;;;;;5012461;28;20018;-84
2022/12/04 04:12:01;;;;;;;62.65;31.10;;;2.80;99.90;;;;;;5013725;28;20120;-84
2022/12/04 04:25:50;;;;;;;66.28;31.98;;;2.80;99.90;;;;;;5013597;28;20045;-83
2022/12/04 04:28:37;;;;;;;66.63;32.38;;;2.70;99.90;;;;;;5012205;28;20084;-83
2022/12/04 04:31:09;;;;;;;65.57;31.77;;;2.70;99.90;;;;;;5012242;28;20014;-83
2022/12/04 04:33:49;;;;;;;66.47;31.08;;;2.70;99.90;;;;;;5012205;28;20026;-83
2022/12/04 04:36:27;;;;;;;72.70;33.22;;;2.70;99.90;;;;;;5011356;28;20033;-83
2022/12/04 04:39:02;;;;;;;68.40;31.95;;;2.70;99.90;;;;;;5013484;28;20052;-83
2022/12/04 04:41:41;;;;;;;73.32;33.92;;;2.70;99.90;;;;;;5012242;28;20026;-83
2022/12/04 04:44:24;;;;;;;69.28;32.92;;;2.70;99.90;;;;;;5012169;28;20033;-82
2022/12/04 04:46:55;;;;;;;63.78;31.48;;;2.70;99.90;;;;;;5013062;28;20169;-83
2022/12/04 04:49:21;;;;;;;;;;;2.70;99.90;;;;;;5012552;28;20018;-83
2022/12/04 04:51:47;;;;;;;68.07;31.08;;;2.70;99.90;;;;;;5011939;28;19905;-83
2022/12/04 04:54:15;;;;;;;68.85;33.63;;;2.70;99.90;;;;;;5011570;28;20049;-83
2022/12/04 04:56:43;;;;;;;72.93;31.95;;;2.60;99.90;;;;;;5011913;28;20038;-83
2022/12/04 04:59:09;;;;;;;63.05;31.13;;;2.70;99.90;;;;;;5013338;28;20056;-83
2022/12/04 05:01:36;;;;;;;70.68;33.63;;;2.70;99.90;;;;;;4999153;28;20042;-83
2022/12/04 05:04:03;;;;;;;68.07;32.63;;;2.70;99.90;;;;;;5016948;28;20141;-83
2022/12/04 05:06:29;;;;;;;65.20;31.20;;;2.70;99.90;;;;;;5015555;28;20048;-83
2022/12/04 05:09:02;;;;;;;60.97;31.25;;;2.70;99.90;;;;;;5016744;28;20062;-83
2022/12/04 05:11:28;;;;;;;64.43;32.25;;;2.70;99.90;;;;;;5015464;28;20036;-83
2022/12/04 05:13:54;;;;;;;74.78;31.75;;;2.70;99.90;;;;;;5015328;28;20018;-83
2022/12/04 05:16:19;;;;;;;70.10;30.83;;;2.60;99.90;;;;;;5015260;28;20034;-83
2022/12/04 05:19:52;;;;;;;67.53;32.28;;;2.70;99.90;;;;;;4999272;28;20121;-83
2022/12/04 05:21:31;;;;;;;68.20;32.35;;;2.70;99.90;;;;;;5016296;28;20563;-82
2022/12/04 05:23:57;;;;;;;66.70;30.88;;;2.70;99.90;;;;;;5016500;28;20045;-83
2022/12/04 05:26:24;;;;;;;67.72;32.10;;;2.70;99.90;;;;;;4998803;28;20152;-83
2022/12/04 05:28:50;;;;;;;65.50;31.30;;;2.70;99.90;;;;;;4998763;28;20026;-84
2022/12/04 05:31:16;;;;;;;67.90;32.03;;;2.70;99.90;;;;;;5014924;28;20022;-84
2022/12/04 05:33:44;;;;;;;63.30;30.95;;;2.70;99.90;;;;;;4998637;28;20109;-84
2022/12/04 05:36:12;;;;;;;59.85;30.27;;;2.70;99.90;;;;;;5014900;28;20079;-83
2022/12/04 05:38:37;;;;;;;67.57;31.48;;;2.70;99.90;;;;;;5007266;28;20026;-84
2022/12/04 05:41:08;;;;;;;65.95;32.50;;;2.70;99.90;;;;;;4979303;28;20027;-84
2022/12/04 05:43:34;;;;;;;63.38;31.05;;;2.70;99.90;;;;;;4979256;28;20364;-84
2022/12/04 05:46:07;;;;;;;64.10;30.08;;;2.70;99.90;;;;;;4995103;28;20464;-83
2022/12/04 05:48:34;;;;;;;63.17;30.55;;;2.70;99.90;;;;;;4995068;28;20041;-84
2022/12/04 05:51:04;;;;;;;57.72;28.77;;;2.70;99.90;;;;;;4995067;28;20077;-84
2022/12/04 05:53:29;;;;;;;60.38;30.08;;;2.70;99.90;;;;;;4995031;28;20045;-84
2022/12/04 05:56:01;;;;;;;60.10;30.05;;;2.70;99.90;;;;;;4994787;28;20089;-83
2022/12/04 05:58:27;;;;;;;65.25;30.38;;;2.80;99.90;;;;;;4995172;28;20543;-84
2022/12/04 06:00:53;;;;;;;61.65;29.85;;;2.70;99.90;;;;;;4978815;28;20121;-85
2022/12/04 06:06:42;;;;;;;59.88;29.30;;;2.70;99.90;;;;;;4995986;28;20041;-84
2022/12/04 06:09:08;;;;;;;64.07;30.42;;;2.70;99.90;;;;;;4994629;28;20490;-84
2022/12/04 06:11:36;;;;;;;63.08;30.08;;;2.70;99.90;;;;;;4994676;28;20058;-84
2022/12/04 06:14:05;;;;;;;60.30;28.75;;;2.70;99.90;;;;;;4994723;28;20022;-83
2022/12/04 06:16:34;;;;;;;60.22;30.08;;;2.70;99.90;;;;;;4994507;28;20018;-83
2022/12/04 06:19:03;;;;;;;60.85;29.58;;;2.70;99.90;;;;;;4994293;28;20038;-83
2022/12/04 06:21:31;;;;;;;63.38;30.50;;;2.80;99.90;;;;;;4995694;28;20138;-83
2022/12/04 06:23:57;;;;;;;64.53;30.25;;;2.80;99.90;;;;;;4995659;28;20447;-83
2022/12/04 06:26:23;;;;;;;59.80;29.75;;;2.70;99.90;;;;;;4994533;28;20108;-83
2022/12/04 06:28:53;;;;;;;60.00;29.58;;;2.80;99.90;;;;;;4994280;28;20026;-83
2022/12/04 06:31:19;;;;;;;60.15;29.20;;;2.80;99.90;;;;;;4995587;28;20072;-83
2022/12/04 06:33:45;;;;;;;61.15;28.50;;;2.80;99.90;;;;;;4994068;28;20435;-83
2022/12/04 06:36:14;;;;;;;62.67;30.00;;;2.80;99.90;;;;;;4978023;28;20022;-84
2022/12/04 06:38:40;;;;;;;59.50;29.33;;;2.80;99.90;;;;;;4994061;28;20037;-84
2022/12/04 06:41:09;;;;;;;58.83;28.10;;;2.80;99.90;;;;;;4994083;28;20105;-84
2022/12/04 06:43:35;;;;;;;57.42;27.58;;;2.80;99.90;;;;;;4994064;28;20436;-83
2022/12/04 06:46:09;;;;;;;61.70;29.13;;;2.80;99.90;;;;;;4993758;28;20030;-84
2022/12/04 06:48:36;;;;;;;62.33;29.88;;;2.80;99.90;;;;;;4993903;28;20027;-84
2022/12/04 06:51:05;;;;;;;63.10;29.38;;;2.80;99.90;;;;;;4977755;28;20030;-83
2022/12/04 06:53:31;;;;;;;58.10;27.50;;;2.80;99.90;;;;;;4993861;28;20033;-84
2022/12/04 06:55:58;;;;;;;58.10;28.55;;;2.80;99.90;;;;;;4995038;28;20046;-84
2022/12/04 06:58:25;;;;;;;59.70;29.17;;;2.80;99.90;;;;;;4993764;28;20105;-84
2022/12/04 07:00:51;;;;;;;56.45;27.60;;;2.80;99.90;;;;;;4978311;28;20038;-84
2022/12/04 07:03:17;;;;;;;58.70;28.30;;;2.80;99.90;;;;;;4977571;28;20034;-85
2022/12/04 07:05:43;;;;;;;60.67;29.35;;;2.80;99.90;;;;;;4993540;28;20456;-84
2022/12/04 07:08:10;;;;;;;60.85;29.95;;;2.80;99.90;;;;;;4988944;28;20050;-83
2022/12/04 07:10:36;;;;;;;62.50;29.77;;;2.80;99.90;;;;;;5013154;28;20029;-84
2022/12/04 07:13:03;;;;;;;59.15;28.02;;;2.80;99.90;;;;;;5013148;28;20058;-84
2022/12/04 07:15:29;;;;;;;61.55;29.67;;;2.80;99.90;;;;;;4996682;28;20034;-84
2022/12/04 07:17:55;;;;;;;59.10;28.38;;;2.80;99.90;;;;;;5013356;28;20088;-83
2022/12/04 07:20:21;;;;;;;59.38;29.02;;;2.80;99.90;;;;;;5013087;28;20034;-84
2022/12/04 07:22:47;;;;;;;63.47;28.75;;;2.80;99.90;;;;;;4980076;28;20132;-85
2022/12/04 07:25:12;;;;;;;54.63;28.23;;;2.80;99.90;;;;;;5014638;28;20069;-85
2022/12/04 07:31:04;;;;;;;52.63;26.48;;;2.80;99.90;;;;;;5015621;28;20068;-85
2022/12/04 07:33:29;;;;;;;59.13;28.13;;;2.80;99.90;;;;;;5013008;28;20121;-85
2022/12/04 07:35:59;;;;;;;53.08;27.73;;;2.80;99.90;;;;;;5012573;28;20455;-85
2022/12/04 07:38:26;;;;;;;54.83;26.17;;;2.80;99.90;;;;;;5012933;28;20037;-84
2022/12/04 07:40:55;;;;;;;57.30;25.90;;;2.80;99.90;;;;;;5013848;28;20101;-84
2022/12/04 07:43:21;;;;;;;52.65;27.73;;;2.80;99.90;;;;;;5013890;28;20113;-84
2022/12/04 07:45:46;;;;;;;53.78;26.38;;;2.80;99.90;;;;;;4989490;28;20125;-84
2022/12/04 07:48:50;;;;;;;52.63;26.70;;;2.80;99.90;;;;;;4992786;28;20022;-84
2022/12/04 07:51:19;;;;;;;54.10;26.58;;;2.80;99.90;;;;;;5009312;28;20472;-84
2022/12/04 07:53:45;;;;;;;56.90;27.73;;;2.80;99.90;;;;;;4994284;28;20028;-84
2022/12/04 07:56:11;;;;;;;54.08;28.30;;;2.80;99.90;;;;;;4992679;28;20050;-84
2022/12/04 07:58:37;;;;;;;53.72;26.10;;;2.80;99.90;;;;;;5009283;28;20160;-83
2022/12/04 08:01:09;;;;;;;55.50;27.70;;;2.80;99.90;;;;;;5009176;28;20121;-84
2022/12/04 08:03:35;;;;;;;56.28;26.48;;;2.80;99.90;;;;;;5009228;28;20081;-84
2022/12/04 08:06:03;;;;;;;53.65;26.90;;;2.80;99.90;;;;;;5009490;28;20037;-84
2022/12/04 08:08:29;;;;;;;54.40;25.63;;;2.80;99.90;;;;;;5009784;28;20031;-84
2022/12/04 08:10:55;;;;;;;50.42;24.73;;;2.90;99.90;;;;;;5009231;28;20022;-84
2022/12/04 08:13:20;;;;;;;55.13;25.70;;;2.80;99.90;;;;;;5009164;28;20026;-83
2022/12/04 08:15:47;;;;;;;49.97;25.90;;;2.90;99.90;;;;;;4992788;28;20088;-83
2022/12/04 08:18:12;;;;;;;55.15;25.90;;;2.80;99.90;;;;;;4994004;28;20024;-83
2022/12/04 08:20:38;;;;;;;53.60;26.15;;;2.90;99.90;;;;;;4992726;28;20450;-83
2022/12/04 08:23:04;;;;;;;56.35;25.70;;;2.90;99.90;;;;;;4993314;28;20106;-83
2022/12/04 08:25:29;;;;;;;50.72;25.08;;;2.90;99.90;;;;;;4992623;28;20027;-83
2022/12/04 08:27:55;;;;;;;48.60;24.35;;;2.90;99.90;;;;;;5009088;28;20467;-84
2022/12/04 08:30:21;;;;;;;53.72;25.38;;;2.90;99.90;;;;;;4994429;28;20404;-84
2022/12/04 08:32:47;;;;;;;56.53;26.65;;;2.90;99.90;;;;;;4992554;28;20097;-84
2022/12/04 08:35:13;;;;;;;53.10;24.20;;;2.90;99.90;;;;;;4979557;28;20023;-82
2022/12/04 08:37:39;;;;;;;52.35;24.95;;;2.80;99.90;;;;;;5012697;28;20045;-83
2022/12/04 08:40:05;;;;;;;53.20;26.33;;;2.80;99.90;;;;;;4980246;28;20030;-83
2022/12/04 08:42:31;;;;;;;52.30;25.05;;;2.80;99.90;;;;;;5012148;28;20031;-83
2022/12/04 08:44:56;;;;;;;53.17;25.90;;;2.80;99.90;;;;;;4996368;28;20554;-83
2022/12/04 08:47:22;;;;;;;54.38;25.67;;;2.80;99.90;;;;;;5012253;28;20018;-83
2022/12/04 08:53:10;;;;;;;46.45;23.13;;;2.80;99.90;;;;;;4997593;28;20030;-84
2022/12/04 08:55:38;;;;;;;57.38;26.55;;;2.80;99.90;;;;;;4995889;28;20058;-84
2022/12/04 08:58:03;;;;;;;49.88;24.17;;;2.80;99.90;;;;;;4997726;28;20459;-84
2022/12/04 09:00:30;;;;;;;50.92;24.42;;;2.80;99.90;;;;;;4998085;28;20039;-84
2022/12/04 09:02:56;;;;;;;50.42;23.73;;;2.80;99.90;;;;;;5015345;28;20030;-84
2022/12/04 09:05:22;;;;;;;55.45;25.02;;;2.80;99.90;;;;;;5014817;28;20080;-84
2022/12/04 09:07:48;;;;;;;52.13;24.65;;;2.80;99.90;;;;;;4998881;28;20426;-83
2022/12/04 09:10:14;;;;;;;48.97;23.55;;;2.80;99.90;;;;;;4998961;28;20112;-83
2022/12/04 09:12:39;;;;;;;51.20;24.27;;;2.80;99.90;;;;;;5016329;28;20379;-83
2022/12/04 09:19:04;;;;;;;48.05;23.33;;;2.90;99.90;;;;;;5016700;28;20387;-84
2022/12/04 09:21:30;;;;;;;50.80;22.67;;;2.90;99.90;;;;;;5015305;28;20026;-84
2022/12/04 09:23:57;;;;;;;48.80;23.30;;;2.90;99.90;;;;;;5015213;28;20072;-84
2022/12/04 09:26:32;;;;;;;47.72;23.95;;;2.80;99.90;;;;;;4998503;28;20030;-84
2022/12/04 09:29:00;;;;;;;43.63;22.83;;;2.90;99.90;;;;;;5014772;28;20018;-85
2022/12/04 09:31:26;;;;;;;47.38;23.08;;;2.90;99.90;;;;;;4995381;28;20180;-84
2022/12/04 09:33:52;;;;;;;47.72;24.35;;;2.90;99.90;;;;;;4996605;28;20430;-83
2022/12/04 09:36:18;;;;;;;52.78;23.30;;;2.90;99.90;;;;;;4995407;28;20113;-84
2022/12/04 09:38:45;;;;;;;43.38;22.17;;;2.90;99.90;;;;;;4995215;28;20105;-83
2022/12/04 09:41:30;;;;;;;45.58;22.45;;;2.90;99.90;;;;;;4995122;28;20030;-83
2022/12/04 09:44:08;;;;;;;45.90;21.27;;;2.90;99.90;;;;;;4994980;28;20042;-84
2022/12/04 09:46:36;;;;;;;43.92;20.58;;;2.90;99.90;;;;;;4998094;28;20034;-83
2022/12/04 09:49:09;;;;;;;40.58;20.17;;;2.80;99.90;;;;;;5016098;28;20022;-83
2022/12/04 09:51:38;;;;;;;41.58;19.58;;;2.80;99.90;;;;;;4996484;28;20022;-84
2022/12/04 09:54:13;;;;;;;40.00;19.70;;;2.80;99.90;;;;;;4996133;28;20471;-84
2022/12/04 09:56:39;;;;;;;38.60;19.08;;;2.80;99.90;;;;;;4996510;28;20446;-82
2022/12/04 09:59:18;;;;;;;34.58;17.42;;;2.80;99.90;;;;;;4994860;28;20022;-82
2022/12/04 10:01:57;;;;;;;32.67;16.88;;;2.80;99.90;;;;;;4994912;28;20061;-82
2022/12/04 10:04:23;;;;;;;36.65;19.20;;;2.80;99.90;;;;;;4994967;28;20034;-83
2022/12/04 10:07:02;;;;;;;36.05;18.45;;;2.90;99.90;;;;;;5002743;28;20030;-83
2022/12/04 10:09:37;;;;;;;36.40;17.95;;;2.90;99.90;;;;;;5015577;28;20117;-83
2022/12/04 10:12:21;;;;;;;31.10;15.75;;;2.90;99.90;;;;;;5016101;28;20068;-83
2022/12/04 10:18:12;;;;;;;32.50;14.88;;;2.90;99.90;;;;;;5015693;28;20092;-83
2022/12/04 10:20:59;;;;;;;26.58;13.82;;;2.90;99.90;;;;;;5012098;28;20045;-83
2022/12/04 10:23:47;;;;;;;26.98;15.00;;;2.80;99.90;;;;;;5006460;28;20026;-83
2022/12/04 10:26:16;;;;;;;28.02;13.98;;;2.80;99.90;;;;;;5035018;28;20075;-83
2022/12/04 10:28:58;;;;;;;27.77;15.18;;;2.90;99.90;;;;;;5033777;28;20029;-83
2022/12/04 10:31:26;;;;;;;27.58;14.85;;;2.80;99.90;;;;;;5035200;28;20056;-83
2022/12/04 10:33:53;;;;;;;28.75;14.75;;;2.80;99.90;;;;;;5034889;28;20470;-83
2022/12/04 10:36:22;;;;;;;27.33;14.95;;;2.90;99.90;;;;;;5035010;28;20036;-83
2022/12/04 10:39:23;;;;;;;27.40;14.68;;;2.90;99.90;;;;;;5033916;28;20086;-83
2022/12/04 10:42:04;;;;;;;28.52;14.38;;;2.90;99.90;;;;;;4947159;28;20042;-85
2022/12/04 10:44:30;;;;;;;29.42;14.60;;;2.90;99.90;;;;;;5013640;28;20030;-85
2022/12/04 10:54:17;;;;;;;24.88;13.55;;;3.00;99.90;;;;;;5014887;28;20101;-85
2022/12/04 10:56:50;;;;;;;24.83;14.00;;;3.00;99.90;;;;;;4975297;28;20101;-84
2022/12/04 10:59:15;;;;;;;24.05;13.40;;;3.00;99.90;;;;;;4974391;28;20353;-83
2022/12/04 11:05:26;;;;;;;27.38;14.63;;;3.00;99.90;;;;;;4975713;28;20046;-82
2022/12/04 11:07:54;;;;;;;28.58;14.13;;;3.00;99.90;;;;;;4974472;28;20031;-83
2022/12/04 11:10:46;;;;;;;26.00;14.32;;;3.00;99.90;;;;;;4968555;28;20011;-86
2022/12/04 11:13:12;;;;;;;27.38;13.55;;;3.00;99.90;;;;;;4955826;28;20047;-84
2022/12/04 11:15:49;;;;;;;23.10;13.48;;;3.00;99.90;;;;;;4956112;28;20107;-83
2022/12/04 11:18:18;;;;;;;26.02;13.48;;;3.00;99.90;;;;;;4955275;29;20034;-83
2022/12/04 11:20:53;;;;;;;24.27;12.85;;;3.00;99.90;;;;;;4956618;28;20028;-83
2022/12/04 11:23:19;;;;;;;25.83;14.20;;;3.00;99.90;;;;;;4975097;28;20030;-84
2022/12/04 11:25:51;;;;;;;27.90;14.40;;;3.00;99.90;;;;;;4974880;28;20030;-82
2022/12/04 11:28:21;;;;;;;25.70;13.25;;;3.00;99.90;;;;;;4972480;28;20033;-82
2022/12/04 11:30:56;;;;;;;25.30;13.48;;;3.00;99.90;;;;;;4973637;28;20035;-84
2022/12/04 11:33:43;;;;;;;24.20;14.55;;;3.10;99.90;;;;;;4975268;28;20027;-84
2022/12/04 11:36:35;;;;;;;23.00;13.15;;;3.10;99.90;;;;;;4973694;28;20118;-84
2022/12/04 11:39:09;;;;;;;24.75;13.75;;;3.10;99.90;;;;;;4973593;28;20049;-84
2022/12/04 11:41:35;;;;;;;26.70;14.55;;;3.10;99.90;;;;;;4973724;28;20023;-84
2022/12/04 11:44:01;;;;;;;25.33;13.48;;;3.00;99.90;;;;;;4957547;28;20431;-84
2022/12/04 11:46:32;;;;;;;25.40;14.07;;;3.10;99.90;;;;;;4974592;28;20421;-82
2022/12/04 11:48:59;;;;;;;21.88;13.50;;;3.10;99.90;;;;;;4974904;28;20019;-82
2022/12/04 11:51:33;;;;;;;25.88;13.05;;;3.10;99.90;;;;;;4975826;28;20046;-82
2022/12/04 11:54:16;;;;;;;23.25;13.50;;;3.10;99.90;;;;;;4974930;28;20025;-83
2022/12/04 11:56:51;;;;;;;26.88;14.48;;;3.20;99.90;;;;;;5012430;28;20465;-83
2022/12/04 11:59:38;;;;;;;25.25;14.05;;;3.20;99.90;;;;;;5013637;28;20117;-83
2022/12/04 12:02:29;;;;;;;23.33;13.50;;;3.20;99.90;;;;;;5012467;28;20063;-83
2022/12/04 12:05:01;;;;;;;24.55;13.45;;;3.20;99.90;;;;;;5013580;28;20022;-85
2022/12/04 12:07:52;;;;;;;26.02;12.63;;;3.20;99.90;;;;;;5013550;28;20034;-84
2022/12/04 12:10:47;;;;;;;22.50;13.57;;;3.20;99.90;;;;;;5039730;23;20440;-83
2022/12/04 12:13:29;;;;;;;26.33;13.98;;;3.20;99.90;;;;;;5023069;28;20107;-83
2022/12/04 12:16:16;;;;;;;23.88;13.05;;;3.20;99.90;;;;;;5039939;28;20488;-83
2022/12/04 12:19:04;;;;;;;24.35;13.32;;;3.20;99.90;;;;;;5039802;28;20034;-84
2022/12/04 12:21:58;;;;;;;26.50;13.73;;;3.20;99.90;;;;;;5022217;28;20379;-85
2022/12/04 12:24:35;;;;;;;24.20;13.85;;;3.20;99.90;;;;;;4982407;28;20045;-84
2022/12/04 12:27:38;;;;;;;22.40;12.88;;;3.20;99.90;;;;;;5021953;28;20071;-85
2022/12/04 12:30:29;;;;;;;26.02;13.50;;;3.20;99.90;;;;;;5022025;28;20045;-85
2022/12/04 12:32:57;;;;;;;24.87;14.10;;;3.30;99.90;;;;;;5039062;28;20496;-85
2022/12/04 12:35:37;;;;;;;24.48;14.05;;;3.30;99.90;;;;;;5039613;28;20315;-84
2022/12/04 12:38:56;;;;;;;24.08;13.50;;;3.30;99.90;;;;;;5021952;28;20470;-84
2022/12/04 12:41:37;;;;;;;21.95;13.63;;;3.30;99.90;;;;;;4997737;28;20030;-84
2022/12/04 12:44:15;;;;;;;23.73;13.30;;;3.30;99.90;;;;;;5039704;28;20494;-83
2022/12/04 12:46:55;;;;;;;22.88;13.45;;;3.30;99.90;;;;;;5022189;28;20029;-84
2022/12/04 12:49:36;;;;;;;24.67;13.35;;;3.30;99.90;;;;;;5021828;28;20075;-84
2022/12/04 12:52:25;;;;;;;23.70;13.77;;;3.30;99.90;;;;;;5021778;28;20029;-84
2022/12/04 12:54:57;;;;;;;21.40;12.15;;;3.30;99.90;;;;;;5011733;28;20026;-85
2022/12/04 12:57:33;;;;;;;23.92;13.55;;;3.30;99.90;;;;;;5039456;28;20461;-85
2022/12/04 13:00:20;;;;;;;23.20;13.68;;;3.30;99.90;;;;;;5021271;28;20029;-84
2022/12/04 13:03:11;;;;;;;23.05;13.93;;;3.30;99.90;;;;;;5021119;28;20121;-84
2022/12/04 13:05:42;;;;;;;22.50;12.50;;;3.30;99.90;;;;;;5021058;28;20017;-84
2022/12/04 13:08:26;;;;;;;26.55;14.30;;;3.30;99.90;;;;;;5021508;28;20026;-84
2022/12/04 13:11:04;;;;;;;23.45;12.82;;;3.30;99.90;;;;;;5021437;28;20052;-86
2022/12/04 13:13:34;;;;;;;23.83;13.23;;;3.40;99.90;;;;;;5021594;28;20074;-85
2022/12/04 13:16:12;;;;;;;24.95;13.77;;;3.40;99.90;;;;;;5021505;28;20478;-86
2022/12/04 13:18:50;;;;;;;22.92;12.88;;;3.40;99.90;;;;;;5021757;28;20025;-85
2022/12/04 13:21:30;;;;;;;21.08;12.50;;;3.40;99.90;;;;;;5018132;28;20025;-85
2022/12/04 13:24:02;;;;;;;24.05;12.50;;;3.40;99.90;;;;;;5018643;28;20032;-85
2022/12/04 13:26:48;;;;;;;21.35;12.73;;;3.40;99.90;;;;;;5035863;28;20064;-86
2022/12/04 13:29:32;;;;;;;23.85;13.05;;;3.40;99.90;;;;;;5017692;28;20040;-84
2022/12/04 13:32:01;;;;;;;22.20;12.13;;;3.40;99.90;;;;;;5035525;28;20029;-83
2022/12/04 13:34:38;;;;;;;22.88;12.57;;;3.40;99.90;;;;;;5034514;28;20040;-83
2022/12/04 13:37:24;;;;;;;21.63;12.15;;;3.40;99.90;;;;;;5017714;28;20033;-83
2022/12/04 13:40:07;;;;;;;21.98;12.80;;;3.40;99.90;;;;;;5035839;28;20029;-83
2022/12/04 13:42:33;;;;;;;21.13;12.48;;;3.40;99.90;;;;;;5035506;28;20025;-84
2022/12/04 13:45:05;;;;;;;23.30;11.82;;;3.40;99.90;;;;;;5010912;28;20084;-84
2022/12/04 13:47:33;;;;;;;22.00;13.10;;;3.40;99.90;;;;;;4998374;28;20096;-84
2022/12/04 13:50:30;;;;;;;25.33;14.07;;;3.40;99.90;;;;;;5015785;28;20058;-84
2022/12/04 13:53:31;;;;;;;22.27;13.00;;;3.50;99.90;;;;;;4954952;29;20110;-83